createdAt,value
2022-11-08T00:01:51.674Z,19.67
2022-11-08T00:04:24.383Z,19.70
2022-11-08T00:07:14.498Z,19.67
2022-11-08T00:10:06.394Z,18.45
2022-11-08T00:12:56.684Z,18.08
2022-11-08T00:15:29.479Z,20.60
2022-11-08T00:18:01.440Z,17.90
2022-11-08T00:20:33.847Z,17.70
2022-11-08T00:23:07.473Z,21.05
2022-11-08T00:25:40.788Z,19.38
2022-11-08T00:28:12.752Z,17.17
2022-11-08T00:30:44.664Z,17.25
2022-11-08T00:33:16.612Z,20.08
2022-11-08T00:35:48.970Z,19.67
2022-11-08T00:38:20.987Z,17.90
2022-11-08T00:40:54.425Z,17.85
2022-11-08T00:43:26.413Z,19.05
2022-11-08T00:45:58.296Z,17.63
2022-11-08T00:48:30.260Z,17.38
2022-11-08T00:51:03.113Z,17.80
2022-11-08T00:53:37.300Z,18.58
2022-11-08T00:56:13.056Z,16.40
2022-11-08T00:58:45.077Z,17.05
2022-11-08T01:01:18.908Z,17.45
2022-11-08T01:03:51.516Z,18.02
2022-11-08T01:06:24.900Z,16.88
2022-11-08T01:08:57.265Z,16.70
2022-11-08T01:11:30.825Z,17.55
2022-11-08T01:14:03.104Z,19.40
2022-11-08T01:16:35.167Z,15.73
2022-11-08T01:19:07.142Z,16.77
2022-11-08T01:21:39.062Z,16.73
2022-11-08T01:24:11.020Z,17.42
2022-11-08T01:26:44.279Z,15.85
2022-11-08T01:29:16.262Z,16.77
2022-11-08T01:31:48.192Z,15.90
2022-11-08T01:34:20.123Z,15.27
2022-11-08T01:36:52.078Z,14.95
2022-11-08T01:39:23.996Z,14.35
2022-11-08T01:41:57.291Z,15.63
2022-11-08T01:44:29.233Z,15.77
2022-11-08T01:47:01.388Z,14.90
2022-11-08T01:49:46.376Z,15.63
2022-11-08T01:52:22.919Z,15.68
2022-11-08T01:55:03.006Z,14.00
2022-11-08T01:57:43.347Z,13.98
2022-11-08T02:02:54.604Z,14.52
2022-11-08T02:05:28.394Z,15.60
2022-11-08T02:08:06.844Z,15.48
2022-11-08T02:10:42.604Z,14.98
2022-11-08T02:13:19.594Z,14.63
2022-11-08T02:15:51.612Z,13.75
2022-11-08T02:18:26.406Z,14.07
2022-11-08T02:21:04.869Z,15.10
2022-11-08T02:23:47.021Z,15.07
2022-11-08T02:26:22.527Z,15.05
2022-11-08T02:28:54.836Z,14.38
2022-11-08T02:31:26.738Z,14.35
2022-11-08T02:33:58.621Z,13.57
2022-11-08T02:36:30.604Z,15.82
2022-11-08T02:39:03.944Z,15.40
2022-11-08T02:41:35.927Z,16.17
2022-11-08T02:44:07.935Z,16.38
2022-11-08T02:46:39.946Z,16.50
2022-11-08T02:49:11.943Z,17.40
2022-11-08T02:51:43.892Z,18.05
2022-11-08T02:54:17.167Z,14.98
2022-11-08T02:56:49.192Z,17.05
2022-11-08T02:59:21.171Z,16.48
2022-11-08T03:01:53.230Z,15.88
2022-11-08T03:04:25.213Z,16.65
2022-11-08T03:06:57.160Z,15.88
2022-11-08T03:09:30.461Z,14.68
2022-11-08T03:12:02.388Z,15.13
2022-11-08T03:14:34.327Z,17.00
2022-11-08T03:17:06.314Z,15.35
2022-11-08T03:19:38.241Z,13.88
2022-11-08T03:22:10.160Z,16.05
2022-11-08T03:24:43.428Z,16.40
2022-11-08T03:27:15.453Z,13.38
2022-11-08T03:29:47.773Z,13.85
2022-11-08T03:32:19.695Z,12.10
2022-11-08T03:34:51.600Z,14.15
2022-11-08T03:37:23.582Z,13.15
2022-11-08T03:39:56.873Z,14.30
2022-11-08T03:42:28.783Z,13.88
2022-11-08T03:45:00.632Z,12.88
2022-11-08T03:47:37.426Z,12.95
2022-11-08T03:50:11.197Z,13.27
2022-11-08T03:52:43.990Z,12.32
2022-11-08T03:55:18.688Z,11.75
2022-11-08T03:57:51.431Z,13.25
2022-11-08T04:00:26.228Z,12.18
2022-11-08T04:03:03.102Z,12.68
2022-11-08T04:05:35.105Z,11.20
2022-11-08T04:08:07.142Z,11.75
2022-11-08T04:10:40.413Z,11.57
2022-11-08T04:13:30.675Z,11.88
2022-11-08T04:16:02.638Z,11.15
2022-11-08T04:18:53.261Z,10.38
2022-11-08T04:21:25.145Z,10.25
2022-11-08T04:23:57.056Z,10.25
2022-11-08T04:26:30.317Z,11.15
2022-11-08T04:29:05.649Z,10.85
2022-11-08T04:31:37.699Z,11.35
2022-11-08T04:34:09.647Z,10.73
2022-11-08T04:36:41.657Z,8.95
2022-11-08T04:39:13.578Z,10.05
2022-11-08T04:41:46.896Z,9.23
2022-11-08T04:44:18.819Z,9.60
2022-11-08T04:46:50.701Z,10.70
2022-11-08T04:49:22.704Z,9.52
2022-11-08T04:51:54.637Z,9.23
2022-11-08T04:54:26.572Z,9.75
2022-11-08T04:56:59.839Z,8.65
2022-11-08T04:59:31.769Z,10.13
2022-11-08T05:02:03.809Z,9.70
2022-11-08T05:04:35.848Z,8.65
2022-11-08T05:07:07.783Z,8.82
2022-11-08T05:09:39.681Z,9.70
2022-11-08T05:12:13.015Z,10.02
2022-11-08T05:14:44.933Z,8.93
2022-11-08T05:17:17.258Z,10.90
2022-11-08T05:20:07.753Z,10.10
2022-11-08T05:22:58.392Z,9.25
2022-11-08T05:25:30.330Z,9.32
2022-11-08T05:28:03.729Z,8.60
2022-11-08T05:30:35.658Z,9.80
2022-11-08T05:33:07.697Z,9.10
2022-11-08T05:35:39.687Z,7.93
2022-11-08T05:38:11.645Z,7.97
2022-11-08T05:40:43.843Z,8.75
2022-11-08T05:43:17.393Z,8.68
2022-11-08T05:45:49.801Z,8.88
2022-11-08T05:48:21.786Z,9.30
2022-11-08T05:50:54.058Z,7.82
2022-11-08T05:53:26.065Z,9.60
2022-11-08T05:55:59.428Z,9.00
2022-11-08T05:58:34.369Z,9.20
2022-11-08T06:01:08.270Z,7.55
2022-11-08T06:03:40.644Z,7.03
2022-11-08T06:06:14.614Z,9.05
2022-11-08T06:08:50.296Z,7.95
2022-11-08T06:11:24.516Z,7.93
2022-11-08T06:13:58.026Z,8.18
2022-11-08T06:16:30.024Z,7.43
2022-11-08T06:19:02.108Z,8.68
2022-11-08T06:21:34.019Z,8.07
2022-11-08T06:24:06.774Z,8.43
2022-11-08T06:26:38.693Z,7.75
2022-11-08T06:29:12.001Z,7.55
2022-11-08T06:31:43.974Z,8.02
2022-11-08T06:34:16.022Z,7.13
2022-11-08T06:36:47.951Z,6.90
2022-11-08T06:39:19.887Z,6.97
2022-11-08T06:41:51.862Z,6.72
2022-11-08T06:44:25.207Z,7.30
2022-11-08T06:46:57.216Z,7.35
2022-11-08T06:49:29.199Z,7.60
2022-11-08T06:52:01.342Z,6.50
2022-11-08T06:54:33.333Z,6.35
2022-11-08T06:57:05.329Z,7.50
2022-11-08T06:59:40.089Z,6.65
2022-11-08T07:02:12.113Z,7.40
2022-11-08T07:04:44.095Z,6.70
2022-11-08T07:07:16.026Z,8.68
2022-11-08T07:09:47.950Z,7.07
2022-11-08T07:12:19.876Z,6.82
2022-11-08T07:14:53.235Z,7.05
2022-11-08T07:17:25.199Z,6.93
2022-11-08T07:19:57.122Z,6.50
2022-11-08T07:22:29.131Z,5.40
2022-11-08T07:25:01.140Z,6.10
2022-11-08T07:27:33.085Z,5.82
2022-11-08T07:30:07.620Z,6.78
2022-11-08T07:32:39.554Z,6.30
2022-11-08T07:35:11.565Z,5.88
2022-11-08T07:37:43.530Z,6.05
2022-11-08T07:40:15.662Z,5.78
2022-11-08T07:43:10.570Z,6.30
2022-11-08T07:45:41.652Z,6.70
2022-11-08T07:48:14.144Z,5.85
2022-11-08T07:50:46.816Z,5.85
2022-11-08T07:53:19.311Z,6.32
2022-11-08T07:55:51.459Z,5.18
2022-11-08T07:58:23.483Z,5.78
2022-11-08T08:01:01.201Z,5.28
2022-11-08T08:03:33.223Z,5.25
2022-11-08T08:06:05.331Z,5.88
2022-11-08T08:08:37.279Z,5.45
2022-11-08T08:11:10.368Z,5.38
2022-11-08T08:13:42.616Z,5.05
2022-11-08T08:16:15.973Z,5.10
2022-11-08T08:18:55.055Z,5.15
2022-11-08T08:21:28.216Z,6.60
2022-11-08T08:24:00.178Z,6.25
2022-11-08T08:26:32.091Z,6.75
2022-11-08T08:29:04.253Z,6.38
2022-11-08T08:31:37.653Z,6.60
2022-11-08T08:34:09.618Z,6.80
2022-11-08T08:36:41.727Z,10.38
2022-11-08T08:39:13.765Z,6.00
2022-11-08T08:41:45.695Z,6.28
2022-11-08T08:44:17.695Z,6.85
2022-11-08T08:46:51.057Z,9.00
2022-11-08T08:49:23.055Z,7.25
2022-11-08T08:51:54.987Z,8.98
2022-11-08T08:54:29.533Z,6.57
2022-11-08T08:57:01.656Z,5.05
2022-11-08T09:02:26.997Z,6.25
2022-11-08T09:04:59.340Z,4.75
2022-11-08T09:07:31.311Z,4.95
2022-11-08T09:10:04.050Z,4.40
2022-11-08T09:12:36.723Z,4.22
2022-11-08T09:15:09.858Z,4.38
2022-11-08T09:17:43.611Z,4.43
2022-11-08T09:20:16.127Z,4.13
2022-11-08T09:22:48.277Z,4.85
2022-11-08T09:25:20.225Z,3.53
2022-11-08T09:27:54.304Z,4.55
2022-11-08T09:30:26.874Z,4.13
2022-11-08T09:33:02.082Z,4.18
2022-11-08T09:35:34.680Z,3.35
2022-11-08T09:38:07.549Z,3.97
2022-11-08T09:40:43.033Z,4.05
2022-11-08T09:43:30.175Z,5.30
2022-11-08T09:46:02.247Z,4.22
2022-11-08T09:48:39.229Z,4.32
2022-11-08T09:51:15.522Z,4.55
2022-11-08T09:53:50.054Z,3.75
2022-11-08T09:56:28.025Z,4.93
2022-11-08T09:59:05.766Z,3.80
2022-11-08T10:01:38.935Z,3.97
2022-11-08T10:04:15.779Z,3.22
2022-11-08T10:07:02.481Z,4.65
2022-11-08T10:09:49.351Z,3.78
2022-11-08T10:12:25.967Z,3.35
2022-11-08T10:15:12.125Z,3.70
2022-11-08T10:18:05.534Z,4.15
2022-11-08T10:20:53.877Z,4.65
2022-11-08T10:23:37.081Z,11.30
2022-11-08T10:26:14.688Z,6.72
2022-11-08T10:28:51.782Z,8.07
2022-11-08T10:31:23.747Z,5.78
2022-11-08T10:33:57.285Z,4.32
2022-11-08T10:36:37.535Z,4.55
2022-11-08T10:39:15.111Z,6.38
2022-11-08T10:41:50.742Z,5.30
2022-11-08T10:44:24.797Z,14.00
2022-11-08T10:47:00.460Z,5.75
2022-11-08T10:49:35.333Z,13.50
2022-11-08T10:52:18.807Z,4.80
2022-11-08T10:54:52.229Z,4.20
2022-11-08T10:57:34.458Z,4.03
2022-11-08T11:00:18.155Z,4.25
2022-11-08T11:02:52.457Z,3.63
2022-11-08T11:05:29.425Z,3.28
2022-11-08T11:08:13.617Z,3.38
2022-11-08T11:10:47.567Z,3.75
2022-11-08T11:13:21.917Z,3.80
2022-11-08T11:16:00.808Z,3.67
2022-11-08T11:18:35.228Z,3.25
2022-11-08T11:21:11.106Z,3.05
2022-11-08T11:23:46.744Z,3.45
2022-11-08T11:26:31.124Z,3.00
2022-11-08T11:29:15.974Z,2.22
2022-11-08T11:31:50.826Z,2.88
2022-11-08T11:34:35.465Z,2.50
2022-11-08T11:37:19.393Z,2.55
2022-11-08T11:40:00.270Z,3.50
2022-11-08T11:42:45.610Z,3.00
2022-11-08T11:45:22.802Z,2.30
2022-11-08T11:47:57.106Z,3.05
2022-11-08T11:50:32.920Z,3.22
2022-11-08T11:53:07.866Z,2.95
2022-11-08T11:56:09.325Z,2.58
2022-11-08T11:59:08.709Z,2.85
2022-11-08T12:01:54.404Z,3.05
2022-11-08T12:04:40.641Z,2.50
2022-11-08T12:07:19.385Z,3.42
2022-11-08T12:10:01.574Z,2.67
2022-11-08T12:12:45.275Z,2.85
2022-11-08T12:15:26.130Z,3.30
2022-11-08T12:18:41.380Z,3.17
2022-11-08T12:21:15.499Z,2.25
2022-11-08T12:24:01.679Z,2.58
2022-11-08T12:26:41.439Z,2.83
2022-11-08T12:29:30.522Z,3.05
2022-11-08T12:32:26.087Z,2.35
2022-11-08T12:35:19.796Z,5.78
2022-11-08T12:38:04.016Z,3.58
2022-11-08T12:40:45.830Z,2.55
2022-11-08T12:43:41.201Z,1.98
2022-11-08T12:46:18.626Z,2.30
2022-11-08T12:49:20.621Z,2.50
2022-11-08T12:52:08.624Z,3.60
2022-11-08T12:54:44.183Z,2.63
2022-11-08T12:57:21.171Z,2.90
2022-11-08T13:00:00.921Z,6.10
2022-11-08T13:02:38.363Z,4.70
2022-11-08T13:05:18.942Z,4.20
2022-11-08T13:07:58.872Z,3.50
2022-11-08T13:10:39.199Z,2.95
2022-11-08T13:16:14.640Z,2.13
2022-11-08T13:18:50.215Z,3.55
2022-11-08T13:21:38.477Z,5.55
2022-11-08T13:24:49.291Z,6.57
2022-11-08T13:27:32.579Z,7.03
2022-11-08T13:30:35.399Z,7.15
2022-11-08T13:33:16.533Z,7.20
2022-11-08T13:36:03.189Z,7.43
2022-11-08T13:38:48.049Z,5.80
2022-11-08T13:41:21.920Z,8.02
2022-11-08T13:43:55.079Z,6.93
2022-11-08T13:46:48.121Z,5.63
2022-11-08T13:49:22.696Z,5.47
2022-11-08T13:52:27.787Z,7.50
2022-11-08T13:55:01.102Z,7.97
2022-11-08T13:57:55.833Z,8.05
2022-11-08T14:00:43.354Z,8.23
2022-11-08T14:03:55.190Z,6.88
2022-11-08T14:06:34.412Z,5.45
2022-11-08T14:09:20.639Z,5.68
2022-11-08T14:12:00.928Z,4.75
2022-11-08T14:14:47.491Z,3.10
2022-11-08T14:17:34.550Z,3.72
2022-11-08T14:20:28.903Z,4.63
2022-11-08T14:23:12.461Z,5.03
2022-11-08T14:25:48.410Z,4.50
2022-11-08T14:28:28.007Z,4.63
2022-11-08T14:31:02.110Z,4.47
2022-11-08T14:33:42.568Z,5.05
2022-11-08T14:36:16.871Z,5.13
2022-11-08T14:38:52.664Z,4.80
2022-11-08T14:41:27.137Z,6.05
2022-11-08T14:44:02.656Z,5.05
2022-11-08T14:46:38.002Z,4.57
2022-11-08T14:49:11.401Z,3.70
2022-11-08T14:51:43.629Z,3.88
2022-11-08T14:54:17.839Z,4.40
2022-11-08T14:56:50.482Z,5.32
2022-11-08T14:59:24.838Z,6.13
2022-11-08T15:01:57.820Z,9.45
2022-11-08T15:04:31.590Z,7.50
2022-11-08T15:07:09.011Z,13.38
2022-11-08T15:09:40.981Z,10.30
2022-11-08T15:12:16.005Z,9.65
2022-11-08T15:14:54.967Z,7.25
2022-11-08T15:17:36.177Z,7.90
2022-11-08T15:20:20.775Z,7.65
2022-11-08T15:22:56.432Z,5.93
2022-11-08T15:25:33.879Z,8.50
2022-11-08T15:28:15.172Z,6.72
2022-11-08T15:30:56.190Z,6.88
2022-11-08T15:33:34.004Z,8.35
2022-11-08T15:36:12.558Z,10.88
2022-11-08T15:38:49.323Z,7.03
2022-11-08T15:41:31.545Z,6.85
2022-11-08T15:44:14.549Z,6.90
2022-11-08T15:46:48.329Z,6.60
2022-11-08T15:49:22.078Z,8.02
2022-11-08T15:51:55.836Z,7.75
2022-11-08T15:54:27.810Z,9.27
2022-11-08T15:56:59.732Z,9.57
2022-11-08T15:59:35.897Z,11.27
2022-11-08T16:02:14.572Z,15.23
2022-11-08T16:04:46.511Z,14.65
2022-11-08T16:07:18.542Z,11.88
2022-11-08T16:09:50.596Z,10.02
2022-11-08T16:12:22.534Z,12.35
2022-11-08T16:14:57.898Z,10.90
2022-11-08T16:17:31.327Z,11.13
2022-11-08T16:20:16.615Z,11.93
2022-11-08T16:22:48.554Z,10.77
2022-11-08T16:25:20.700Z,6.88
2022-11-08T16:27:55.856Z,6.57
2022-11-08T16:30:27.885Z,8.02
2022-11-08T16:33:01.352Z,8.48
2022-11-08T16:35:33.317Z,21.20
2022-11-08T16:38:08.879Z,17.42
2022-11-08T16:40:42.768Z,9.38
2022-11-08T16:43:14.682Z,7.78
2022-11-08T16:48:45.025Z,7.38
2022-11-08T16:51:18.836Z,6.00
2022-11-08T16:53:51.110Z,8.90
2022-11-08T16:56:23.190Z,5.88
2022-11-08T16:58:55.076Z,7.25
2022-11-08T17:01:32.396Z,7.13
2022-11-08T17:04:06.599Z,6.03
2022-11-08T17:06:38.636Z,6.45
2022-11-08T17:09:10.740Z,5.90
2022-11-08T17:11:42.718Z,5.72
2022-11-08T17:14:14.834Z,4.80
2022-11-08T17:16:48.317Z,8.00
2022-11-08T17:19:21.606Z,4.80
2022-11-08T17:21:53.577Z,7.13
2022-11-08T17:24:25.521Z,6.22
2022-11-08T17:26:57.494Z,6.00
2022-11-08T17:29:29.417Z,6.40
2022-11-08T17:32:01.412Z,8.32
2022-11-08T17:34:34.758Z,7.53
2022-11-08T17:37:06.684Z,9.30
2022-11-08T17:39:38.553Z,8.07
2022-11-08T17:42:10.569Z,7.50
2022-11-08T17:44:42.457Z,10.70
2022-11-08T17:47:14.683Z,6.70
2022-11-08T17:49:48.010Z,7.18
2022-11-08T17:52:20.849Z,8.98
2022-11-08T17:54:53.280Z,6.07
2022-11-08T17:57:26.370Z,6.53
2022-11-08T17:59:58.451Z,6.75
2022-11-08T18:02:30.475Z,4.78
2022-11-08T18:05:04.272Z,5.70
2022-11-08T18:07:36.355Z,5.22
2022-11-08T18:10:09.663Z,5.13
2022-11-08T18:12:42.023Z,5.07
2022-11-08T18:15:13.979Z,4.15
2022-11-08T18:17:45.977Z,4.10
2022-11-08T18:20:19.291Z,4.22
2022-11-08T18:22:51.285Z,3.63
2022-11-08T18:25:23.203Z,5.25
2022-11-08T18:27:55.781Z,4.20
2022-11-08T18:30:28.014Z,4.18
2022-11-08T18:33:00.064Z,4.70
2022-11-08T18:35:35.625Z,3.20
2022-11-08T18:38:07.601Z,4.97
2022-11-08T18:40:39.977Z,5.13
2022-11-08T18:43:12.020Z,4.75
2022-11-08T18:45:44.606Z,4.30
2022-11-08T18:48:16.534Z,6.00
2022-11-08T18:50:50.981Z,5.95
2022-11-08T18:53:22.941Z,5.43
2022-11-08T18:55:54.800Z,4.82
2022-11-08T18:58:27.478Z,3.88
2022-11-08T19:01:00.107Z,4.25
2022-11-08T19:03:33.323Z,5.72
2022-11-08T19:06:07.295Z,4.97
2022-11-08T19:08:39.328Z,4.50
2022-11-08T19:11:13.049Z,5.35
2022-11-08T19:13:45.056Z,4.65
2022-11-08T19:16:18.489Z,4.47
2022-11-08T19:18:50.744Z,5.55
2022-11-08T19:21:25.953Z,4.57
2022-11-08T19:23:58.882Z,5.35
2022-11-08T19:26:30.779Z,4.55
2022-11-08T19:29:04.146Z,5.50
2022-11-08T19:31:36.457Z,5.25
2022-11-08T19:34:09.145Z,5.03
2022-11-08T19:36:45.210Z,5.70
2022-11-08T19:39:17.424Z,5.60
2022-11-08T19:41:49.337Z,4.50
2022-11-08T19:44:21.626Z,6.30
2022-11-08T19:46:53.587Z,6.47
2022-11-08T19:49:28.017Z,4.95
2022-11-08T19:52:01.351Z,5.13
2022-11-08T19:54:33.559Z,5.07
2022-11-08T19:57:06.249Z,4.80
2022-11-08T19:59:38.529Z,6.20
2022-11-08T20:02:10.715Z,5.07
2022-11-08T20:04:42.704Z,4.70
2022-11-08T20:07:17.115Z,4.90
2022-11-08T20:09:49.135Z,5.47
2022-11-08T20:12:21.276Z,5.53
2022-11-08T20:14:53.235Z,5.90
2022-11-08T20:17:25.199Z,6.38
2022-11-08T20:19:57.179Z,5.82
2022-11-08T20:22:30.449Z,5.75
2022-11-08T20:25:02.417Z,6.45
2022-11-08T20:27:34.326Z,6.25
2022-11-08T20:30:07.664Z,5.65
2022-11-08T20:32:39.586Z,5.63
2022-11-08T20:35:11.563Z,6.57
2022-11-08T20:37:44.953Z,5.80
2022-11-08T20:40:17.388Z,6.38
2022-11-08T20:42:49.397Z,6.68
2022-11-08T20:45:21.360Z,7.45
2022-11-08T20:47:53.307Z,6.75
2022-11-08T20:50:25.592Z,6.97
2022-11-08T20:52:58.926Z,7.20
2022-11-08T20:55:30.895Z,7.07
2022-11-08T20:58:03.395Z,9.90
2022-11-08T21:00:57.237Z,9.05
2022-11-08T21:03:28.217Z,9.73
2022-11-08T21:06:01.698Z,9.48
2022-11-08T21:11:30.834Z,9.60
2022-11-08T21:14:03.404Z,8.77
2022-11-08T21:16:53.166Z,9.27
2022-11-08T21:19:28.915Z,7.72
2022-11-08T21:22:16.248Z,9.73
2022-11-08T21:24:49.602Z,9.35
2022-11-08T21:27:24.685Z,8.77
2022-11-08T21:30:00.509Z,7.78
2022-11-08T21:32:33.347Z,9.07
2022-11-08T21:35:05.959Z,8.07
2022-11-08T21:37:37.922Z,10.95
2022-11-08T21:40:11.771Z,9.38
2022-11-08T21:42:48.428Z,9.13
2022-11-08T21:45:20.710Z,7.60
2022-11-08T21:47:53.860Z,9.73
2022-11-08T21:50:25.996Z,9.32
2022-11-08T21:52:58.830Z,9.10
2022-11-08T21:55:32.960Z,7.03
2022-11-08T21:58:05.031Z,7.78
2022-11-08T22:00:37.039Z,7.82
2022-11-08T22:03:11.295Z,9.18
2022-11-08T22:05:43.868Z,9.20
2022-11-08T22:08:16.148Z,9.27
2022-11-08T22:10:49.741Z,9.32
2022-11-08T22:13:22.155Z,9.60
2022-11-08T22:15:54.093Z,7.95
2022-11-08T22:18:50.243Z,8.75
2022-11-08T22:21:36.344Z,9.50
2022-11-08T22:26:42.297Z,10.77
2022-11-08T22:29:15.182Z,10.85
2022-11-08T22:31:47.241Z,9.15
2022-11-08T22:34:19.205Z,11.48
2022-11-08T22:36:51.209Z,10.50
2022-11-08T22:39:23.796Z,10.52
2022-11-08T22:41:57.119Z,10.95
2022-11-08T22:44:29.182Z,10.43
2022-11-08T22:47:01.105Z,10.85
2022-11-08T22:49:33.050Z,10.98
2022-11-08T22:52:05.274Z,10.75
2022-11-08T22:54:37.249Z,11.77
2022-11-08T22:57:10.548Z,10.45
2022-11-08T22:59:42.497Z,12.15
2022-11-08T23:02:14.378Z,10.77
2022-11-08T23:04:46.282Z,10.98
2022-11-08T23:07:18.245Z,10.93
2022-11-08T23:09:50.263Z,9.90
2022-11-08T23:12:42.133Z,10.20
2022-11-08T23:15:32.888Z,10.20
2022-11-08T23:18:04.864Z,10.30
2022-11-08T23:20:55.341Z,10.60
2022-11-08T23:26:40.073Z,9.85
2022-11-08T23:29:32.068Z,9.32
2022-11-08T23:32:03.981Z,9.75
2022-11-08T23:34:35.924Z,9.48
2022-11-08T23:37:08.438Z,8.18
2022-11-08T23:40:00.353Z,9.57
2022-11-08T23:42:50.922Z,10.57
2022-11-08T23:45:24.282Z,10.13
2022-11-08T23:47:56.268Z,8.85
2022-11-08T23:50:28.274Z,9.25
2022-11-08T23:53:00.197Z,9.70
2022-11-08T23:55:33.960Z,11.20
2022-11-08T23:58:05.927Z,8.45
